Time;durP1;ratioP1;P1;durP2;ratioP2;P2;SDS_P1;SDS_P2;PMS_P1;PMS_P2;Temp;Humidity;BMP_temperature;BMP_pressure;BME280_temperature;BME280_humidity;BME280_pressure;Samples;Min_cycle;Max_cycle;Signal;HPM_P1;HPM_P2
2020/12/05 00:01:18;;;;;;;10.30;5.78;;;3.90;65.60;;;1.54;70.37;93454.97;5022079;28;20038;-65
2020/12/05 00:03:44;;;;;;;10.90;5.68;;;3.90;65.70;;;1.51;70.21;93465.72;4978034;28;20069;-65
2020/12/05 00:06:09;;;;;;;10.40;5.60;;;3.90;65.50;;;1.46;70.28;93462.94;5010339;28;20056;-65
2020/12/05 00:08:35;;;;;;;9.55;5.20;;;3.80;66.00;;;1.44;70.58;93464.94;5023440;28;20040;-66
2020/12/05 00:11:01;;;;;;;10.45;6.03;;;3.80;66.00;;;1.40;70.56;93467.13;5034725;28;20041;-65
2020/12/05 00:13:27;;;;;;;11.02;5.70;;;3.70;66.20;;;1.37;70.48;93469.31;5018436;28;20528;-65
2020/12/05 00:15:52;;;;;;;10.27;5.72;;;3.70;66.20;;;1.33;70.74;93481.81;5031081;28;20140;-65
2020/12/05 00:18:18;;;;;;;10.18;5.50;;;3.70;66.00;;;1.31;70.53;93501.16;5012912;28;20048;-65
2020/12/05 00:20:45;;;;;;;10.57;5.80;;;3.70;66.10;;;1.27;70.53;93484.41;4996970;28;20035;-64
2020/12/05 00:23:12;;;;;;;10.23;5.68;;;3.60;66.30;;;1.26;70.93;93493.16;5011571;28;20412;-65
2020/12/05 00:25:39;;;;;;;11.02;6.15;;;3.60;66.50;;;1.23;70.58;93469.28;5010709;28;20031;-65
2020/12/05 00:28:05;;;;;;;11.25;5.63;;;3.60;66.50;;;1.20;70.70;93440.41;4999520;28;20109;-65
2020/12/05 00:30:31;;;;;;;9.50;5.10;;;3.50;66.50;;;1.16;70.92;93397.78;5014952;28;20088;-65
2020/12/05 00:32:58;;;;;;;9.10;4.90;;;3.40;66.50;;;1.13;71.03;93396.38;4998732;28;20521;-65
2020/12/05 00:35:23;;;;;;;14.07;5.18;;;3.40;66.80;;;1.14;70.84;93412.72;5009782;28;20033;-65
2020/12/05 00:37:49;;;;;;;10.27;5.70;;;3.40;67.00;;;1.16;70.29;93408.13;5004386;28;20045;-64
2020/12/05 00:40:15;;;;;;;10.10;5.28;;;3.40;67.10;;;1.17;70.72;93392.41;4991933;28;20058;-65
2020/12/05 00:42:41;;;;;;;12.10;4.38;;;3.50;67.00;;;1.22;70.96;93384.84;5013915;28;20175;-66
2020/12/05 00:45:06;;;;;;;9.93;4.68;;;3.50;67.00;;;1.26;70.10;93389.63;5023804;28;20056;-65
2020/12/05 00:47:32;;;;;;;8.02;4.45;;;3.50;66.80;;;1.28;70.76;93403.16;5021714;28;20057;-65
2020/12/05 00:49:58;;;;;;;8.15;4.22;;;3.50;66.80;;;1.30;70.57;93398.56;5024510;28;20034;-65
2020/12/05 00:52:24;;;;;;;8.63;4.43;;;3.60;66.70;;;1.35;70.91;93415.09;4992204;28;20045;-65
2020/12/05 00:54:49;;;;;;;8.80;4.15;;;3.60;66.50;;;1.39;70.40;93410.34;5008783;28;20038;-65
2020/12/05 00:57:15;;;;;;;10.32;4.70;;;3.60;66.40;;;1.42;70.75;93415.91;5013994;28;20056;-66
2020/12/05 00:59:41;;;;;;;8.10;4.15;;;3.70;66.30;;;1.44;70.53;93413.13;4991494;28;20587;-65
2020/12/05 01:02:07;;;;;;;9.35;5.15;;;3.60;66.30;;;1.46;70.76;93411.13;5014178;28;20113;-65
2020/12/05 01:04:32;;;;;;;7.18;3.70;;;3.60;66.20;;;1.47;70.74;93402.38;4994292;28;20113;-65
2020/12/05 01:06:58;;;;;;;7.85;4.20;;;3.70;66.20;;;1.48;70.73;93380.66;4993153;28;21972;-65
2020/12/05 01:09:24;;;;;;;9.95;4.30;;;3.70;66.10;;;1.54;70.35;93388.41;5017924;28;20037;-65
2020/12/05 01:11:49;;;;;;;10.55;4.30;;;3.70;66.10;;;1.57;70.27;93382.03;5010042;28;20040;-65
2020/12/05 01:14:15;;;;;;;6.25;3.58;;;3.80;66.10;;;1.60;70.55;93392.03;5019737;28;20536;-65
2020/12/05 01:16:41;;;;;;;7.35;3.75;;;3.80;66.10;;;1.62;70.19;93384.84;5009489;28;20030;-65
2020/12/05 01:19:07;;;;;;;8.20;3.95;;;3.90;66.00;;;1.66;70.61;93375.66;4979686;28;20117;-65
2020/12/05 01:21:32;;;;;;;7.80;3.85;;;3.90;65.80;;;1.69;70.29;93384.81;4997240;28;20470;-65
2020/12/05 01:23:58;;;;;;;8.38;3.88;;;3.90;65.70;;;1.71;70.10;93388.81;5006545;28;20041;-65
2020/12/05 01:26:24;;;;;;;8.00;3.90;;;3.90;65.60;;;1.74;70.02;93393.59;5012373;28;20038;-65
2020/12/05 01:28:50;;;;;;;5.07;3.22;;;4.00;65.50;;;1.76;70.21;93390.78;5009569;28;20041;-65
2020/12/05 01:31:16;;;;;;;8.02;4.03;;;4.00;65.40;;;1.77;70.42;93400.94;4994057;28;20034;-65
2020/12/05 01:33:42;;;;;;;6.75;3.47;;;4.10;65.30;;;1.77;70.06;93421.69;5007745;28;20034;-65
2020/12/05 01:36:07;;;;;;;5.43;3.03;;;4.10;65.30;;;1.79;69.98;93419.69;5011249;28;20540;-65
2020/12/05 01:38:33;;;;;;;6.55;3.40;;;4.10;65.10;;;1.80;70.86;93418.69;5029463;28;20046;-65
2020/12/05 01:40:59;;;;;;;6.15;3.30;;;4.10;65.30;;;1.79;70.34;93427.44;5029592;28;20052;-65
2020/12/05 01:43:26;;;;;;;7.53;3.53;;;4.10;65.10;;;1.80;70.12;93418.69;5012294;28;20651;-65
2020/12/05 01:45:52;;;;;;;6.30;3.50;;;4.10;65.10;;;1.79;70.44;93419.69;5010943;28;20443;-65
2020/12/05 01:48:18;;;;;;;6.03;3.20;;;4.10;65.10;;;1.79;69.93;93419.69;5012930;28;20038;-65
2020/12/05 01:50:44;;;;;;;7.43;3.70;;;4.10;65.00;;;1.78;70.22;93412.91;4987224;28;20034;-65
2020/12/05 01:53:12;;;;;;;7.55;3.47;;;4.10;65.10;;;1.77;70.47;93413.91;4977895;28;20450;-65
2020/12/05 01:55:38;;;;;;;7.32;3.50;;;4.10;64.90;;;1.78;69.79;93425.84;5028773;28;20045;-65
2020/12/05 01:58:04;;;;;;;7.15;3.75;;;4.10;65.00;;;1.78;70.54;93445.78;5012906;28;20402;-65
2020/12/05 02:00:30;;;;;;;6.00;2.85;;;4.10;65.10;;;1.76;70.61;93443.41;5023249;28;20121;-65
2020/12/05 02:02:56;;;;;;;6.53;3.45;;;4.10;65.00;;;1.78;70.33;93446.59;5014783;28;20037;-65
2020/12/05 02:05:33;;;;;;;5.55;2.92;;;4.10;65.00;;;1.78;69.50;93430.25;5013326;28;20123;-65
2020/12/05 02:08:09;;;;;;;5.88;3.20;;;4.10;65.10;;;1.78;70.01;93444.00;5003658;28;20636;-65
2020/12/05 02:10:39;;;;;;;5.93;3.08;;;4.10;65.30;;;1.76;70.77;93443.41;4990833;28;20409;-65
2020/12/05 02:13:21;;;;;;;5.15;3.13;;;4.10;65.30;;;1.75;70.73;93436.63;4981145;28;20041;-65
2020/12/05 02:15:47;;;;;;;5.75;2.85;;;4.10;65.50;;;1.72;70.83;93442.22;4995285;28;20034;-65
2020/12/05 02:18:13;;;;;;;5.60;2.92;;;4.00;66.20;;;1.67;70.49;93460.16;5003603;28;20034;-65
2020/12/05 02:20:39;;;;;;;5.82;3.38;;;4.00;66.60;;;1.62;70.45;93465.16;4988032;28;20604;-70
2020/12/05 02:23:12;;;;;;;5.97;3.15;;;3.90;66.40;;;1.57;71.25;93488.22;4985299;28;20035;-65
2020/12/05 02:25:59;;;;;;;7.57;2.97;;;3.90;66.60;;;1.50;70.71;93485.66;4998211;28;20057;-65
2020/12/05 02:28:24;;;;;;;5.88;2.92;;;3.80;66.90;;;1.44;70.80;93486.44;5012527;28;20045;-65
2020/12/05 02:30:50;;;;;;;6.07;3.42;;;3.70;67.10;;;1.38;71.21;93496.78;5015383;28;20444;-65
2020/12/05 02:33:17;;;;;;;5.43;3.03;;;3.70;67.10;;;1.35;70.93;93512.69;4968579;28;20065;-65
2020/12/05 02:35:43;;;;;;;7.20;3.13;;;3.70;66.70;;;1.32;70.67;93492.38;5009317;28;20099;-65
2020/12/05 02:38:33;;;;;;;5.78;3.10;;;3.70;66.50;;;1.30;71.61;93471.06;5009820;28;20544;-65
2020/12/05 02:40:59;;;;;;;7.10;3.97;;;3.60;66.80;;;1.27;70.51;93494.78;4999774;28;20159;-64
2020/12/05 02:43:26;;;;;;;6.05;3.42;;;3.50;66.80;;;1.22;70.87;93495.34;4991403;28;20038;-65
2020/12/05 02:45:52;;;;;;;8.30;3.67;;;3.50;67.10;;;1.18;71.11;93501.94;5006900;28;20030;-65
2020/12/05 02:48:18;;;;;;;6.15;3.58;;;3.40;67.50;;;1.12;70.80;93507.84;4984668;28;20034;-65
2020/12/05 02:50:44;;;;;;;8.30;3.78;;;3.30;67.70;;;1.08;71.28;93506.66;4997293;28;20051;-65
2020/12/05 02:53:09;;;;;;;8.55;4.22;;;3.30;68.10;;;1.03;70.94;93509.03;4989856;28;20035;-65
2020/12/05 02:55:35;;;;;;;6.80;3.55;;;3.20;67.80;;;1.00;71.15;93523.16;4987669;28;20092;-64
2020/12/05 02:58:01;;;;;;;12.10;5.25;;;3.20;68.10;;;0.96;70.84;93559.97;5002995;28;20123;-64
2020/12/05 03:00:27;;;;;;;9.80;4.63;;;3.10;68.30;;;0.90;71.32;93558.94;5003551;28;20057;-64
2020/12/05 03:02:52;;;;;;;7.70;4.40;;;3.10;69.00;;;0.85;71.45;93562.09;5010922;28;20198;-65
2020/12/05 03:05:18;;;;;;;8.15;3.92;;;3.00;69.10;;;0.80;71.99;93576.63;4996124;28;20033;-65
2020/12/05 03:07:44;;;;;;;6.68;3.88;;;2.90;69.50;;;0.77;71.64;93595.09;5003025;28;20553;-65
2020/12/05 03:10:10;;;;;;;6.82;3.58;;;2.80;69.90;;;0.71;72.05;93598.47;5008563;28;20037;-65
2020/12/05 03:12:36;;;;;;;6.90;3.95;;;2.80;69.80;;;0.68;71.70;93609.16;4992452;28;20688;-65
2020/12/05 03:15:03;;;;;;;8.57;3.80;;;2.90;69.80;;;0.65;72.00;93630.25;5023558;28;20041;-64
2020/12/05 03:17:29;;;;;;;8.40;4.07;;;2.90;69.80;;;0.63;72.05;93635.59;4962074;28;20038;-65
2020/12/05 03:19:55;;;;;;;7.28;4.22;;;2.90;69.70;;;0.58;71.99;93662.03;4979854;28;20343;-65
2020/12/05 03:22:21;;;;;;;8.23;3.92;;;2.70;70.10;;;0.54;72.34;93680.72;4995263;28;20109;-65
2020/12/05 03:24:46;;;;;;;6.82;4.15;;;2.60;70.70;;;0.47;72.30;93675.50;5022478;28;20033;-65
2020/12/05 03:27:12;;;;;;;7.25;4.10;;;2.40;71.10;;;0.42;72.57;93684.78;4988082;28;20461;-65
2020/12/05 03:29:40;;;;;;;10.15;5.72;;;2.30;71.40;;;0.38;72.08;93697.28;5008971;28;20711;-65
2020/12/05 03:32:13;;;;;;;16.92;8.70;;;2.30;71.80;;;0.29;72.68;93690.66;5010163;28;20037;-65
2020/12/05 03:34:42;;;;;;;21.38;11.07;;;2.20;72.50;;;0.21;72.73;93701.88;4969697;28;20410;-65
2020/12/05 03:37:09;;;;;;;23.60;13.27;;;2.00;73.90;;;0.15;73.10;93730.25;5008695;28;20037;-64
2020/12/05 03:39:35;;;;;;;26.90;14.52;;;1.90;74.30;;;0.08;73.57;93757.84;5006939;28;20036;-64
2020/12/05 03:42:01;;;;;;;27.95;15.40;;;1.80;75.10;;;0.04;73.69;93774.69;5012740;28;20026;-65
2020/12/05 03:44:26;;;;;;;29.58;14.93;;;1.70;75.40;;;0.01;73.63;93793.13;4991943;28;20053;-65
2020/12/05 03:46:52;;;;;;;33.35;17.02;;;1.80;75.30;;;-0.03;73.87;93811.56;5010440;28;20088;-64
2020/12/05 03:49:18;;;;;;;34.03;17.38;;;1.70;75.50;;;-0.05;73.77;93810.16;4984694;28;20034;-65
2020/12/05 03:51:44;;;;;;;33.67;17.08;;;1.70;75.70;;;-0.08;73.85;93821.66;5009747;28;20049;-65
2020/12/05 03:54:09;;;;;;;33.88;17.45;;;1.70;75.80;;;-0.13;73.78;93834.31;4993547;28;20100;-65
2020/12/05 03:56:35;;;;;;;35.88;18.27;;;1.60;76.00;;;-0.17;73.98;93833.06;5025168;28;20597;-65
2020/12/05 03:59:01;;;;;;;36.22;18.45;;;1.60;76.10;;;-0.23;74.03;93815.69;5028456;28;20547;-65
2020/12/05 04:01:26;;;;;;;39.90;18.90;;;1.50;76.40;;;-0.26;74.50;93825.56;4992193;28;20044;-65
2020/12/05 04:03:52;;;;;;;34.92;18.40;;;1.50;76.50;;;-0.31;74.46;93824.34;5024362;28;20041;-65
2020/12/05 04:06:18;;;;;;;40.47;18.35;;;1.50;76.40;;;-0.37;74.61;93829.41;5004758;28;20120;-65
2020/12/05 04:08:44;;;;;;;35.20;18.00;;;1.40;76.90;;;-0.41;74.60;93866.91;5016417;28;20095;-65
2020/12/05 04:11:09;;;;;;;36.03;18.92;;;1.30;76.90;;;-0.47;75.06;93865.00;5013133;28;20029;-65
2020/12/05 04:13:35;;;;;;;39.85;20.02;;;1.30;77.10;;;-0.51;75.07;93868.94;5022465;28;20038;-64
2020/12/05 04:16:01;;;;;;;37.22;18.27;;;1.20;77.30;;;-0.54;75.07;93882.19;5012232;28;20026;-65
2020/12/05 04:18:27;;;;;;;33.85;18.88;;;1.30;77.30;;;-0.57;75.37;93896.25;4996423;28;20513;-65
2020/12/05 04:20:52;;;;;;;36.88;19.50;;;1.20;77.70;;;-0.58;75.55;93899.00;5011425;28;20357;-65
2020/12/05 04:23:18;;;;;;;34.13;18.63;;;1.20;77.80;;;-0.58;75.53;93897.22;5011770;28;20536;-64
2020/12/05 04:25:44;;;;;;;37.15;18.38;;;1.30;77.40;;;-0.59;75.80;93913.69;5004567;28;20406;-65
2020/12/05 04:28:09;;;;;;;39.30;20.15;;;1.20;77.80;;;-0.61;75.91;93925.97;5014441;28;20524;-64
2020/12/05 04:30:35;;;;;;;35.47;18.35;;;1.20;77.70;;;-0.59;75.79;93933.56;5028131;28;20064;-65
2020/12/05 04:33:01;;;;;;;37.28;18.60;;;1.30;78.00;;;-0.60;75.78;93934.53;5014269;28;20041;-66
2020/12/05 04:35:27;;;;;;;37.28;19.73;;;1.30;78.40;;;-0.58;75.86;93940.31;5011739;28;20185;-66
2020/12/05 04:37:52;;;;;;;35.85;18.58;;;1.20;78.60;;;-0.59;76.05;93946.47;5004535;28;20034;-67
2020/12/05 04:40:18;;;;;;;35.58;18.60;;;1.30;78.50;;;-0.58;76.23;93958.38;5019990;28;20037;-69
2020/12/05 04:42:48;;;;;;;34.95;18.13;;;1.30;78.80;;;-0.57;77.30;93960.00;5028733;28;20582;-67
2020/12/05 04:45:14;;;;;;;35.15;17.58;;;1.40;78.70;;;-0.53;76.46;93979.31;4997548;28;20034;-67
2020/12/05 04:47:41;;;;;;;33.42;18.95;;;1.50;78.50;;;-0.51;76.51;93985.91;4994550;28;20197;-66
2020/12/05 04:50:07;;;;;;;32.15;17.27;;;1.60;78.40;;;-0.50;76.44;93971.22;5006881;28;20080;-65
2020/12/05 04:52:39;;;;;;;36.90;18.23;;;1.50;78.70;;;-0.48;78.43;93980.41;4990645;28;20038;-65
2020/12/05 04:55:05;;;;;;;34.00;17.63;;;1.60;78.60;;;-0.44;76.84;93980.88;5041594;28;20120;-65
2020/12/05 04:57:39;;;;;;;28.95;16.25;;;1.70;78.40;;;-0.41;78.01;94008.94;4991228;28;20112;-65
2020/12/05 05:00:06;;;;;;;35.20;17.38;;;1.70;78.20;;;-0.38;77.25;94009.38;5015074;28;20037;-65
2020/12/05 05:02:32;;;;;;;31.98;17.38;;;1.80;77.90;;;-0.35;77.00;94001.28;5009818;28;20594;-65
2020/12/05 05:04:57;;;;;;;30.50;16.95;;;1.70;78.40;;;-0.32;77.05;93984.63;5010755;28;20038;-65
2020/12/05 05:07:23;;;;;;;36.78;19.15;;;1.80;78.30;;;-0.29;77.21;93992.03;5014747;28;20454;-65
2020/12/05 05:10:06;;;;;;;34.50;18.27;;;1.90;78.20;;;-0.27;77.40;93991.84;5014305;28;20512;-65
2020/12/05 05:12:33;;;;;;;36.50;19.42;;;1.80;78.40;;;-0.26;76.93;94009.75;5014354;28;20056;-65
2020/12/05 05:14:59;;;;;;;36.85;19.02;;;1.80;78.60;;;-0.25;77.32;94016.53;5025035;28;20047;-65
2020/12/05 05:17:24;;;;;;;33.83;17.73;;;1.90;78.60;;;-0.21;76.94;94038.47;4998619;28;20030;-65
2020/12/05 05:19:50;;;;;;;38.40;18.75;;;1.90;78.60;;;-0.18;77.45;94058.81;5013895;28;20059;-65
2020/12/05 05:22:21;;;;;;;39.80;20.17;;;2.00;78.60;;;-0.14;78.72;94060.06;5023926;28;20038;-65
2020/12/05 05:25:05;;;;;;;31.88;18.55;;;2.00;78.40;;;-0.10;79.98;94076.81;5011310;28;20034;-65
2020/12/05 05:27:32;;;;;;;29.58;16.88;;;2.10;78.60;;;-0.07;77.27;94101.50;4999400;28;20042;-66
2020/12/05 05:30:09;;;;;;;31.95;16.25;;;2.10;78.50;;;-0.05;79.40;94096.97;5017506;28;20128;-65
2020/12/05 05:32:43;;;;;;;31.02;16.23;;;2.20;78.20;;;0.03;77.48;94111.63;4997032;28;20060;-66
2020/12/05 05:35:13;;;;;;;28.75;16.15;;;2.30;78.00;;;0.06;78.11;94122.41;4998774;28;20048;-65
2020/12/05 05:37:40;;;;;;;29.83;16.38;;;2.30;77.90;;;0.10;78.04;94128.03;5025558;28;20132;-67
2020/12/05 05:40:07;;;;;;;27.92;16.08;;;2.30;77.90;;;0.13;77.78;94107.81;5006332;28;20056;-70
2020/12/05 05:42:34;;;;;;;30.65;15.93;;;2.40;77.70;;;0.18;78.21;94122.78;5013225;28;20523;-66
2020/12/05 05:45:26;;;;;;;28.38;16.15;;;2.50;77.70;;;0.20;80.06;94123.41;4998339;28;20066;-65
2020/12/05 05:48:02;;;;;;;;;;;2.40;77.70;;;0.21;80.24;94099.97;4997619;28;20068;-65
2020/12/05 05:50:37;;;;;;;31.02;14.63;;;2.40;78.00;;;0.24;79.29;94111.78;4984040;28;20027;-65
2020/12/05 05:53:10;;;;;;;29.83;16.60;;;2.40;77.90;;;0.25;79.12;94105.63;5013247;28;20044;-66
2020/12/05 05:55:48;;;;;;;31.52;17.40;;;2.40;77.90;;;0.25;79.15;94092.69;5009245;28;20038;-65
2020/12/05 05:58:18;;;;;;;27.63;16.08;;;2.50;78.00;;;0.27;78.71;94111.41;5029793;28;20123;-65
2020/12/05 06:00:49;;;;;;;32.17;16.95;;;2.60;77.60;;;0.28;79.03;94125.94;5046777;28;20037;-65
2020/12/05 06:03:25;;;;;;;32.13;16.80;;;2.60;77.70;;;0.29;79.10;94159.38;5027514;28;20042;-65
2020/12/05 06:05:58;;;;;;;32.65;17.55;;;2.60;77.50;;;0.31;78.50;94182.47;5014164;28;20496;-65
2020/12/05 06:08:26;;;;;;;27.15;15.93;;;2.60;77.60;;;0.32;78.10;94178.13;5029791;28;20520;-65
2020/12/05 06:10:59;;;;;;;31.73;16.02;;;2.60;77.50;;;0.34;79.50;94189.88;4978973;28;20568;-65
2020/12/05 06:13:29;;;;;;;26.63;15.95;;;2.70;77.30;;;0.34;78.98;94199.44;5003019;28;20037;-66
2020/12/05 06:15:56;;;;;;;28.05;16.30;;;2.60;77.40;;;0.36;77.98;94213.78;4990660;28;20104;-66
2020/12/05 06:18:22;;;;;;;26.63;16.17;;;2.70;77.30;;;0.38;78.31;94219.59;5004247;28;20034;-65
2020/12/05 06:20:48;;;;;;;28.75;16.20;;;2.70;77.40;;;0.41;78.05;94232.16;4977060;28;20048;-66
2020/12/05 06:23:40;;;;;;;31.23;16.60;;;2.80;77.00;;;0.44;79.38;94231.00;4993603;28;20508;-66
2020/12/05 06:26:09;;;;;;;29.23;16.20;;;2.80;76.90;;;0.46;78.37;94219.53;5006764;28;20034;-66
2020/12/05 06:28:38;;;;;;;28.40;15.30;;;2.80;76.80;;;0.48;78.65;94204.66;5029223;28;20045;-66
2020/12/05 06:31:05;;;;;;;28.08;15.63;;;2.90;76.80;;;0.50;78.40;94201.91;5012755;28;20041;-66
2020/12/05 06:33:44;;;;;;;30.25;17.08;;;2.90;76.80;;;0.51;79.32;94196.53;5011485;28;20133;-67
2020/12/05 06:36:28;;;;;;;28.23;16.20;;;2.90;76.70;;;0.53;79.83;94192.00;5013511;28;20041;-66
2020/12/05 06:39:06;;;;;;;29.75;15.15;;;3.00;76.50;;;0.54;79.79;94175.50;5028966;28;20033;-66
2020/12/05 06:41:52;;;;;;;28.08;15.02;;;3.00;76.50;;;0.54;79.89;94131.53;5030675;28;20048;-66
2020/12/05 06:44:35;;;;;;;29.92;15.98;;;3.00;76.50;;;0.57;79.67;94146.69;5013134;28;20103;-66
2020/12/05 06:47:03;;;;;;;31.08;15.95;;;3.00;76.40;;;0.58;78.01;94168.19;4997317;28;20065;-66
2020/12/05 06:49:37;;;;;;;31.30;17.38;;;3.00;76.40;;;0.61;79.36;94198.88;4999641;28;20353;-66
2020/12/05 06:52:25;;;;;;;32.33;17.00;;;3.10;76.20;;;0.63;79.55;94230.56;5030417;28;20029;-66
2020/12/05 06:55:11;;;;;;;32.88;17.17;;;3.10;76.30;;;0.66;79.57;94247.50;5018739;28;20568;-66
2020/12/05 06:57:37;;;;;;;30.90;16.60;;;3.10;76.20;;;0.67;78.58;94259.47;5010538;28;20065;-65
2020/12/05 07:00:25;;;;;;;32.88;18.17;;;3.10;76.40;;;0.68;79.99;94285.19;4993030;28;20038;-66
2020/12/05 07:03:01;;;;;;;36.33;18.30;;;3.10;76.50;;;0.71;79.14;94291.78;5015889;28;20026;-66
2020/12/05 07:05:29;;;;;;;32.13;17.25;;;3.10;76.60;;;0.73;78.59;94310.53;4989068;28;20062;-65
2020/12/05 07:08:00;;;;;;;30.23;16.92;;;3.10;76.50;;;0.74;79.18;94309.56;5000653;28;20505;-66
2020/12/05 07:10:53;;;;;;;29.05;15.52;;;3.10;76.60;;;0.78;79.85;94313.41;4996816;28;20061;-66
2020/12/05 07:13:44;;;;;;;38.63;19.83;;;3.20;76.40;;;0.81;78.98;94319.03;5009329;28;20041;-66
2020/12/05 07:16:21;;;;;;;32.38;17.65;;;3.30;76.20;;;0.87;79.19;94312.34;5006705;28;20053;-65
2020/12/05 07:18:55;;;;;;;32.70;18.90;;;3.40;76.10;;;0.92;78.96;94320.44;5014663;28;20052;-67
2020/12/05 07:21:21;;;;;;;65.80;37.30;;;3.40;76.10;;;0.98;78.44;94314.56;4993237;28;20034;-66
2020/12/05 07:23:47;;;;;;;39.95;21.25;;;3.50;77.00;;;1.02;78.51;94310.63;5011354;28;20096;-68
2020/12/05 07:26:13;;;;;;;28.98;17.85;;;3.50;76.30;;;1.03;78.73;94295.91;5009927;28;20046;-68
2020/12/05 07:28:46;;;;;;;45.50;19.40;;;3.40;76.40;;;1.07;79.69;94290.19;5013144;28;20098;-68
2020/12/05 07:31:13;;;;;;;40.70;20.10;;;3.40;76.30;;;1.08;77.85;94324.66;5011893;28;20432;-68
2020/12/05 07:33:39;;;;;;;39.55;21.20;;;3.40;76.50;;;1.09;78.47;94336.63;4990697;28;20034;-70
2020/12/05 07:36:07;;;;;;;30.63;16.85;;;3.40;76.80;;;1.11;78.67;94330.28;4990995;28;20045;-69
2020/12/05 07:38:35;;;;;;;31.83;17.52;;;3.50;76.10;;;1.13;78.45;94340.47;5010814;28;20033;-66
2020/12/05 07:41:19;;;;;;;27.48;16.23;;;3.50;76.10;;;1.13;79.19;94359.41;4978991;28;20094;-69
2020/12/05 07:43:45;;;;;;;29.58;15.70;;;3.40;75.90;;;1.13;78.25;94377.53;4993244;28;20053;-65
2020/12/05 07:46:13;;;;;;;26.85;15.90;;;3.50;75.90;;;1.15;78.77;94377.38;4992689;28;20049;-66
2020/12/05 07:48:39;;;;;;;27.58;15.50;;;3.50;76.00;;;1.17;78.00;94383.97;5008011;28;20466;-68
2020/12/05 07:51:11;;;;;;;26.73;16.25;;;3.60;75.80;;;1.19;78.84;94384.63;4980903;28;20034;-64
2020/12/05 07:53:37;;;;;;;30.48;16.65;;;3.60;75.60;;;1.22;78.61;94392.03;4996991;28;20406;-66
2020/12/05 07:56:20;;;;;;;31.38;17.27;;;3.70;75.60;;;1.25;79.66;94387.47;4999300;28;20053;-64
2020/12/05 07:58:54;;;;;;;33.90;19.10;;;3.70;75.50;;;1.27;79.33;94401.06;4997958;28;20537;-69
2020/12/05 08:01:38;;;;;;;55.75;31.35;;;3.70;75.80;;;1.31;79.97;94405.72;4996887;28;20046;-65
2020/12/05 08:04:18;;;;;;;37.33;21.35;;;3.80;76.00;;;1.35;79.15;94419.91;5012790;28;20045;-65
2020/12/05 08:07:03;;;;;;;26.33;15.30;;;3.80;75.40;;;1.39;79.73;94412.63;5016368;28;20041;-66
2020/12/05 08:09:36;;;;;;;30.40;16.50;;;3.90;75.20;;;1.40;78.66;94403.88;4994090;28;20041;-66
2020/12/05 08:12:11;;;;;;;25.70;15.40;;;3.90;75.00;;;1.42;78.68;94404.50;4997448;28;20030;-66
2020/12/05 08:14:37;;;;;;;29.75;16.65;;;3.90;75.00;;;1.44;78.16;94398.16;5012438;28;20531;-66
2020/12/05 08:17:03;;;;;;;31.13;16.17;;;3.90;75.00;;;1.46;78.44;94390.22;5006086;28;20068;-66
2020/12/05 08:19:29;;;;;;;29.45;16.15;;;4.00;74.80;;;1.49;78.51;94402.81;5008576;28;20034;-66
2020/12/05 08:21:55;;;;;;;27.95;15.82;;;4.00;74.70;;;1.54;78.50;94408.28;4995064;28;20034;-67
2020/12/05 08:24:21;;;;;;;25.15;14.38;;;4.10;74.60;;;1.59;77.76;94411.16;4985946;28;20096;-67
2020/12/05 08:26:50;;;;;;;27.75;15.55;;;4.20;74.60;;;1.65;78.21;94425.22;5019969;28;20068;-66
2020/12/05 08:29:16;;;;;;;25.20;15.27;;;4.10;74.40;;;1.71;78.51;94420.13;4998584;28;20040;-67
2020/12/05 08:31:42;;;;;;;25.88;15.68;;;4.20;74.20;;;1.78;78.03;94426.19;5010360;28;20467;-67
2020/12/05 08:34:08;;;;;;;28.05;15.52;;;4.30;74.30;;;1.84;78.37;94451.44;4998201;28;20477;-67
2020/12/05 08:36:42;;;;;;;35.10;19.95;;;4.30;74.80;;;1.91;79.33;94459.31;5030153;28;20042;-66
2020/12/05 08:39:13;;;;;;;33.95;18.52;;;4.40;74.80;;;1.98;78.72;94468.00;4983149;28;20045;-69
2020/12/05 08:41:45;;;;;;;30.00;16.75;;;4.50;74.40;;;2.05;78.57;94453.34;4979051;28;20104;-68
2020/12/05 08:44:18;;;;;;;29.60;15.65;;;4.60;74.70;;;2.13;78.56;94449.88;5007337;28;20033;-69
2020/12/05 08:46:44;;;;;;;28.42;15.30;;;4.70;73.90;;;2.18;77.51;94444.16;4987464;28;20030;-66
2020/12/05 08:49:20;;;;;;;26.60;14.75;;;4.70;73.00;;;2.18;77.96;94468.28;4978344;28;20096;-66
2020/12/05 08:51:48;;;;;;;23.70;14.07;;;4.70;72.80;;;2.22;78.00;94473.91;5011204;28;20029;-65
2020/12/05 08:54:15;;;;;;;25.23;14.13;;;4.70;72.70;;;2.22;77.22;94490.28;4999823;28;20042;-66
2020/12/05 08:56:40;;;;;;;22.40;13.80;;;4.70;72.50;;;2.25;77.18;94510.69;4995906;28;20061;-67
2020/12/05 08:59:06;;;;;;;22.63;13.90;;;4.70;72.60;;;2.27;77.38;94502.75;5011085;28;20030;-66
2020/12/05 09:01:42;;;;;;;25.15;14.23;;;4.70;72.50;;;2.28;77.30;94517.34;4983546;28;20046;-66
2020/12/05 09:04:12;;;;;;;24.75;14.93;;;4.70;72.30;;;2.24;77.69;94509.06;5023106;28;20026;-66
2020/12/05 09:06:38;;;;;;;25.25;15.60;;;4.70;72.50;;;2.25;77.85;94496.91;4995208;28;20029;-67
2020/12/05 09:09:07;;;;;;;25.25;14.23;;;4.80;72.50;;;2.28;77.10;94499.97;4994856;28;20409;-67
2020/12/05 09:11:33;;;;;;;25.75;14.85;;;4.70;72.60;;;2.28;77.17;94492.19;5011740;28;20046;-67
2020/12/05 09:13:59;;;;;;;23.55;13.93;;;4.70;72.40;;;2.31;77.08;94489.25;4968154;28;20201;-66
2020/12/05 09:16:34;;;;;;;22.25;14.43;;;4.80;72.10;;;2.36;77.46;94506.88;4993726;28;20514;-66
2020/12/05 09:19:00;;;;;;;22.58;14.30;;;4.90;72.00;;;2.38;77.41;94513.50;5005246;28;20034;-67
2020/12/05 09:21:25;;;;;;;26.63;14.70;;;4.90;72.10;;;2.44;76.99;94525.75;5011477;28;20401;-66
2020/12/05 09:23:59;;;;;;;23.92;14.40;;;5.00;72.00;;;2.48;76.80;94536.56;4975468;28;20089;-66
2020/12/05 09:26:25;;;;;;;24.20;14.73;;;5.00;71.70;;;2.51;77.11;94514.66;4973616;28;20062;-66
2020/12/05 09:28:51;;;;;;;30.05;16.60;;;5.10;71.50;;;2.56;76.61;94487.19;4961901;28;20342;-66
2020/12/05 09:31:16;;;;;;;26.85;15.00;;;5.20;71.30;;;2.59;76.68;94473.06;4996165;28;20488;-66
2020/12/05 09:33:45;;;;;;;28.80;15.20;;;5.20;71.00;;;2.64;76.93;94473.31;4991179;28;20074;-66
2020/12/05 09:36:11;;;;;;;27.23;15.98;;;5.30;70.90;;;2.67;76.65;94483.34;4990918;28;20113;-66
2020/12/05 09:38:37;;;;;;;28.52;16.23;;;5.30;70.60;;;2.74;76.63;94499.81;4997723;28;20045;-66
2020/12/05 09:41:02;;;;;;;24.02;15.07;;;5.30;70.50;;;2.80;76.28;94495.69;4981005;28;20037;-68
2020/12/05 09:43:28;;;;;;;27.63;14.98;;;5.30;70.50;;;2.81;76.59;94484.31;5010857;28;20042;-65
2020/12/05 09:45:54;;;;;;;25.48;14.88;;;5.30;70.60;;;2.85;76.98;94488.97;4986190;28;20092;-65
2020/12/05 09:48:20;;;;;;;25.83;15.40;;;5.40;70.40;;;2.90;76.39;94483.22;5015469;28;20073;-65
2020/12/05 09:50:46;;;;;;;39.88;24.75;;;5.50;70.30;;;2.95;76.43;94476.50;4991125;28;20034;-65
2020/12/05 09:53:11;;;;;;;32.33;20.00;;;5.60;70.70;;;3.01;76.46;94477.56;5011479;28;20070;-70
2020/12/05 09:55:37;;;;;;;30.60;16.23;;;5.70;70.20;;;3.04;76.55;94479.81;4999536;28;20064;-68
2020/12/05 09:58:03;;;;;;;30.35;15.95;;;5.70;69.60;;;3.04;76.09;94485.00;5002815;28;20029;-68
2020/12/05 10:00:29;;;;;;;24.17;14.80;;;5.60;69.50;;;3.02;76.65;94492.97;4981684;28;20034;-68
2020/12/05 10:02:54;;;;;;;23.70;14.52;;;5.60;69.80;;;3.01;75.58;94499.16;4993535;28;20117;-68
2020/12/05 10:05:20;;;;;;;27.98;15.27;;;5.50;69.60;;;3.02;75.94;94498.16;5004514;28;20034;-67
2020/12/05 10:07:46;;;;;;;24.13;14.85;;;5.40;69.80;;;2.99;75.89;94501.13;4991538;28;20133;-68
2020/12/05 10:10:12;;;;;;;24.90;15.75;;;5.40;69.70;;;2.94;75.71;94511.25;5009937;28;20061;-68
2020/12/05 10:12:38;;;;;;;21.65;13.85;;;5.30;70.20;;;2.90;75.73;94510.00;5017888;28;20148;-68
2020/12/05 10:15:07;;;;;;;25.90;15.15;;;5.30;70.50;;;2.90;75.91;94515.19;5013132;28;20416;-68
2020/12/05 10:17:33;;;;;;;26.40;15.07;;;5.20;70.60;;;2.90;76.04;94532.56;5008037;28;20041;-68
2020/12/05 10:19:59;;;;;;;42.80;24.15;;;5.30;70.60;;;2.90;76.26;94546.34;4995871;28;20331;-68
2020/12/05 10:22:25;;;;;;;34.35;20.40;;;5.40;70.80;;;2.88;76.21;94548.31;4982357;28;20117;-64
2020/12/05 10:24:50;;;;;;;25.98;15.00;;;5.20;70.80;;;2.80;75.58;94545.81;4992906;28;20095;-64
2020/12/05 10:27:16;;;;;;;23.52;15.40;;;5.10;71.10;;;2.77;75.80;94530.59;4993188;28;20122;-64
2020/12/05 10:29:42;;;;;;;25.10;14.70;;;5.10;71.40;;;2.73;75.91;94531.97;5010773;28;20026;-63